createdAt,value
2023-03-23T00:02:29.204Z,24.2
2023-03-23T00:05:18.503Z,22.7
2023-03-23T00:08:06.216Z,25.1
2023-03-23T00:10:58.026Z,22.3
2023-03-23T00:13:46.825Z,24.5
2023-03-23T00:16:37.142Z,18.8
2023-03-23T00:19:26.786Z,18.4
2023-03-23T00:22:18.088Z,23.5
2023-03-23T00:25:06.839Z,21.8
2023-03-23T00:27:55.004Z,18.6
2023-03-23T00:30:42.751Z,19.7
2023-03-23T00:33:31.784Z,24.8
2023-03-23T00:36:23.923Z,20.5
2023-03-23T00:39:11.777Z,19.8
2023-03-23T00:42:01.829Z,23
2023-03-23T00:44:50.780Z,24.6
2023-03-23T00:47:45.975Z,21.6
2023-03-23T00:50:38.971Z,18.6
2023-03-23T00:53:27.074Z,23.6
2023-03-23T00:56:14.604Z,20.1
2023-03-23T00:59:02.320Z,19.2
2023-03-23T01:01:50.191Z,19.8
2023-03-23T01:04:37.871Z,26.8
2023-03-23T01:07:25.513Z,20.5
2023-03-23T01:10:13.815Z,20.9
2023-03-23T01:13:01.721Z,22.8
2023-03-23T01:15:49.304Z,26.2
2023-03-23T01:18:37.003Z,21.3
2023-03-23T01:21:25.799Z,26.7
2023-03-23T01:24:13.872Z,27.6
2023-03-23T01:27:01.400Z,26
2023-03-23T01:29:52.239Z,32.1
2023-03-23T01:32:40.181Z,21.8
2023-03-23T01:35:29.416Z,19.2
2023-03-23T01:38:17.119Z,25.3
2023-03-23T01:41:05.288Z,27.1
2023-03-23T01:43:52.848Z,25
2023-03-23T01:46:43.737Z,24.5
2023-03-23T01:49:32.694Z,23.2
2023-03-23T01:52:23.962Z,18.6
2023-03-23T01:55:14.876Z,22
2023-03-23T01:58:02.611Z,16.2
2023-03-23T02:00:51.248Z,19.1
2023-03-23T02:03:40.940Z,19.3
2023-03-23T02:06:33.650Z,18.8
2023-03-23T02:09:21.275Z,21.1
2023-03-23T02:12:13.501Z,18.1
2023-03-23T02:15:01.174Z,17.1
2023-03-23T02:17:50.660Z,20.7
2023-03-23T02:20:47.431Z,18
2023-03-23T02:23:57.402Z,17.4
2023-03-23T02:27:09.053Z,15.5
2023-03-23T02:30:04.197Z,17.6
2023-03-23T02:33:31.740Z,12.1
2023-03-23T02:36:26.429Z,13.7
2023-03-23T02:39:21.527Z,15.9
2023-03-23T02:42:13.471Z,15.7
2023-03-23T02:45:07.548Z,16.1
2023-03-23T02:47:58.307Z,12.1
2023-03-23T02:50:48.687Z,15.1
2023-03-23T02:53:39.159Z,13
2023-03-23T02:56:30.738Z,15.8
2023-03-23T02:59:19.557Z,13.7
2023-03-23T03:02:07.348Z,13.7
2023-03-23T03:04:58.790Z,17.1
2023-03-23T03:07:57.364Z,15.8
2023-03-23T03:10:56.059Z,18
2023-03-23T03:13:49.502Z,16.7
2023-03-23T03:16:45.533Z,13.1
2023-03-23T03:19:40.105Z,15.1
2023-03-23T03:22:32.815Z,16
2023-03-23T03:25:24.185Z,13
2023-03-23T03:28:13.558Z,13.2
2023-03-23T03:31:06.746Z,12.8
2023-03-23T03:33:55.088Z,13
2023-03-23T03:36:43.886Z,16.8
2023-03-23T03:39:36.138Z,14.3
2023-03-23T03:42:24.013Z,18.9
2023-03-23T03:45:11.686Z,16.4
2023-03-23T03:48:03.834Z,16.1
2023-03-23T03:50:53.667Z,14.7
2023-03-23T03:53:42.617Z,13.9
2023-03-23T03:56:31.842Z,15.8
2023-03-23T03:59:23.222Z,14.3
2023-03-23T04:02:11.785Z,15.9
2023-03-23T04:05:02.086Z,11.3
2023-03-23T04:07:50.337Z,12.3
2023-03-23T04:10:38.283Z,12.9
2023-03-23T04:13:26.309Z,12
2023-03-23T04:16:14.256Z,10.1
2023-03-23T04:19:02.620Z,10.4
2023-03-23T04:21:51.156Z,9.9
2023-03-23T04:24:56.368Z,11.7
2023-03-23T04:27:51.302Z,11
2023-03-23T04:30:43.450Z,9.8
2023-03-23T04:33:59.616Z,10.2
2023-03-23T04:36:57.105Z,10.1
2023-03-23T04:39:45.182Z,10.7
2023-03-23T04:42:33.306Z,8.6
2023-03-23T04:45:20.875Z,9.4
2023-03-23T04:48:08.556Z,8.5
2023-03-23T04:50:56.568Z,11.5
2023-03-23T04:53:46.623Z,10
2023-03-23T04:56:34.515Z,8.9
2023-03-23T04:59:22.241Z,9.8
2023-03-23T05:02:14.453Z,11.4
2023-03-23T05:05:03.062Z,10.2
2023-03-23T05:07:51.675Z,9.4
2023-03-23T05:10:46.134Z,8.4
2023-03-23T05:13:38.685Z,9.1
2023-03-23T05:16:26.723Z,8
2023-03-23T05:19:15.837Z,9.6
2023-03-23T05:22:03.496Z,8.6
2023-03-23T05:24:51.146Z,10.2
2023-03-23T05:27:38.757Z,7.2
2023-03-23T05:30:28.879Z,9.3
2023-03-23T05:33:16.547Z,9.2
2023-03-23T05:36:04.425Z,7.8
2023-03-23T05:38:56.308Z,8.7
2023-03-23T05:41:47.308Z,8.2
2023-03-23T05:44:41.082Z,10.6
2023-03-23T05:47:30.935Z,6.3
2023-03-23T05:50:18.871Z,9.4
2023-03-23T05:53:07.012Z,9.9
2023-03-23T05:55:55.691Z,6.4
2023-03-23T05:58:46.200Z,8.3
2023-03-23T06:01:34.091Z,8.4
2023-03-23T06:04:22.225Z,7
2023-03-23T06:07:10.407Z,8.4
2023-03-23T06:10:00.118Z,8.3
2023-03-23T06:12:48.568Z,8.9
2023-03-23T06:15:36.894Z,7.7
2023-03-23T06:18:24.501Z,9
2023-03-23T06:21:18.324Z,8.5
2023-03-23T06:24:07.510Z,5.6
2023-03-23T06:26:56.026Z,9.5
2023-03-23T06:29:47.559Z,8.7
2023-03-23T06:32:35.112Z,8.8
2023-03-23T06:35:24.641Z,7.4
2023-03-23T06:38:12.212Z,6.9
2023-03-23T06:40:59.814Z,9.5
2023-03-23T06:43:52.064Z,6.6
2023-03-23T06:46:39.760Z,7.3
2023-03-23T06:49:28.602Z,8.4
2023-03-23T06:52:17.252Z,7.5
2023-03-23T06:55:04.934Z,6.7
2023-03-23T06:57:54.300Z,6.1
2023-03-23T07:00:42.222Z,9
2023-03-23T07:03:31.579Z,5.9
2023-03-23T07:06:19.780Z,7
2023-03-23T07:09:07.916Z,5.1
2023-03-23T07:11:55.709Z,7
2023-03-23T07:14:43.748Z,6.5
2023-03-23T07:17:32.568Z,6.3
2023-03-23T07:20:20.227Z,7.8
2023-03-23T07:23:08.656Z,8.4
2023-03-23T07:25:56.392Z,5.5
2023-03-23T07:28:44.357Z,6.5
2023-03-23T07:31:32.989Z,10.4
2023-03-23T07:34:21.585Z,5.9
2023-03-23T07:37:09.805Z,5.5
2023-03-23T07:39:57.338Z,6.9
2023-03-23T07:42:45.232Z,4.9
2023-03-23T07:45:39.329Z,5
2023-03-23T07:48:27.070Z,6.7
2023-03-23T07:51:14.791Z,5.1
2023-03-23T07:54:04.592Z,5.3
2023-03-23T07:56:53.763Z,7.1
2023-03-23T07:59:41.286Z,5.4
2023-03-23T08:02:31.933Z,5.5
2023-03-23T08:05:23.134Z,4.7
2023-03-23T08:08:13.322Z,5.9
2023-03-23T08:11:00.984Z,7.4
2023-03-23T08:13:48.833Z,4.1
2023-03-23T08:16:36.842Z,5.8
2023-03-23T08:19:24.424Z,4.7
2023-03-23T08:22:12.602Z,5.6
2023-03-23T08:25:00.582Z,5.9
2023-03-23T08:27:49.097Z,5.1
2023-03-23T08:30:36.922Z,4.9
2023-03-23T08:33:25.493Z,6.6
2023-03-23T08:36:13.542Z,6.2
2023-03-23T08:39:01.394Z,5.1
2023-03-23T08:41:50.945Z,5.2
2023-03-23T08:44:38.467Z,4.9
2023-03-23T08:47:26.594Z,7.2
2023-03-23T08:50:14.605Z,6.2
2023-03-23T08:53:03.874Z,5.2
2023-03-23T08:55:52.731Z,5.3
2023-03-23T08:58:41.874Z,5.7
2023-03-23T09:01:31.338Z,8.2
2023-03-23T09:04:19.891Z,7
2023-03-23T09:07:07.668Z,5.8
2023-03-23T09:09:57.812Z,8.7
2023-03-23T09:12:45.730Z,5.7
2023-03-23T09:15:40.963Z,4.7
2023-03-23T09:18:35.901Z,4.3
2023-03-23T09:21:23.885Z,5.1
2023-03-23T09:24:12.872Z,5.6
2023-03-23T09:27:00.561Z,5.2
2023-03-23T09:29:49.033Z,4.5
2023-03-23T09:32:36.756Z,4.4
2023-03-23T09:35:25.354Z,3.7
2023-03-23T09:38:13.546Z,4.3
2023-03-23T09:41:01.290Z,4.5
2023-03-23T09:44:02.856Z,4.8
2023-03-23T09:46:58.977Z,3.9
2023-03-23T09:49:53.505Z,6.8
2023-03-23T09:52:46.374Z,5.3
2023-03-23T09:55:40.355Z,6.6
2023-03-23T09:58:31.035Z,6.1
2023-03-23T10:01:23.959Z,3.4
2023-03-23T10:04:15.378Z,4.4
2023-03-23T10:07:18.058Z,5.9
2023-03-23T10:10:07.871Z,6.2
2023-03-23T10:13:00.270Z,3.6
2023-03-23T10:15:57.360Z,6
2023-03-23T10:18:46.865Z,3.7
2023-03-23T10:21:40.479Z,4.5
2023-03-23T10:24:38.217Z,4.5
2023-03-23T10:27:34.370Z,3.7
2023-03-23T10:30:30.296Z,7.5
2023-03-23T10:33:22.563Z,5.1
2023-03-23T10:36:15.790Z,5.7
2023-03-23T10:39:09.815Z,5.1
2023-03-23T10:42:01.548Z,6
2023-03-23T10:44:52.614Z,5.5
2023-03-23T10:47:42.162Z,6.4
2023-03-23T10:50:36.029Z,4.3
2023-03-23T10:53:24.715Z,5.4
2023-03-23T10:56:18.000Z,4.7
2023-03-23T10:59:10.220Z,4.3
2023-03-23T11:02:00.041Z,3.6
2023-03-23T11:05:03.034Z,3.5
2023-03-23T11:08:04.576Z,2.9
2023-03-23T11:10:59.468Z,4.6
2023-03-23T11:13:56.061Z,2.6
2023-03-23T11:16:46.728Z,5.3
2023-03-23T11:19:39.520Z,3.2
2023-03-23T11:22:27.056Z,4.3
2023-03-23T11:25:18.413Z,4.8
2023-03-23T11:28:06.718Z,5.3
2023-03-23T11:30:55.053Z,4.6
2023-03-23T11:33:49.995Z,2.7
2023-03-23T11:36:43.678Z,7.2
2023-03-23T11:39:36.699Z,4.2
2023-03-23T11:42:34.418Z,2.9
2023-03-23T11:45:28.276Z,3.6
2023-03-23T11:48:21.123Z,4.4
2023-03-23T11:51:14.173Z,2.7
2023-03-23T11:54:06.491Z,6.4
2023-03-23T11:57:01.529Z,2.6
2023-03-23T11:59:54.682Z,3.5
2023-03-23T12:02:46.669Z,2.4
2023-03-23T12:05:43.354Z,2.3
2023-03-23T12:08:39.240Z,3.6
2023-03-23T12:11:43.091Z,3.1
2023-03-23T12:14:44.022Z,3.5
2023-03-23T12:17:44.970Z,3.5
2023-03-23T12:20:43.286Z,6.3
2023-03-23T12:23:44.364Z,4.8
2023-03-23T12:26:42.037Z,4.2
2023-03-23T12:29:37.380Z,3.2
2023-03-23T12:32:38.540Z,3.6
2023-03-23T12:35:38.421Z,4.2
2023-03-23T12:38:37.097Z,3.4
2023-03-23T12:42:04.874Z,2.9
2023-03-23T12:45:01.841Z,4.8
2023-03-23T12:48:04.755Z,3.1
2023-03-23T12:50:57.200Z,4.6
2023-03-23T12:53:56.408Z,3.3
2023-03-23T12:56:53.650Z,4.3
2023-03-23T12:59:47.825Z,2.9
2023-03-23T13:02:41.739Z,4.5
2023-03-23T13:05:42.454Z,3.8
2023-03-23T13:08:40.771Z,5.5
2023-03-23T13:11:35.443Z,5.5
2023-03-23T13:14:26.604Z,4.4
2023-03-23T13:17:27.057Z,4.8
2023-03-23T13:20:25.644Z,4.8
2023-03-23T13:23:46.404Z,3.5
2023-03-23T13:26:41.282Z,5.4
2023-03-23T13:29:33.304Z,5.4
2023-03-23T13:32:21.065Z,4.9
2023-03-23T13:35:16.743Z,3.4
2023-03-23T13:38:07.395Z,7.3
2023-03-23T13:41:04.467Z,4.7
2023-03-23T13:43:58.494Z,4.6
2023-03-23T13:47:04.574Z,6.9
2023-03-23T13:49:55.054Z,5.5
2023-03-23T13:52:44.585Z,4.2
2023-03-23T13:55:38.324Z,6.5
2023-03-23T13:58:28.305Z,4.1
2023-03-23T14:01:16.104Z,3.9
2023-03-23T14:04:18.046Z,4.4
2023-03-23T14:07:07.136Z,5.5
2023-03-23T14:09:57.488Z,4
2023-03-23T14:12:53.504Z,4.5
2023-03-23T14:15:41.284Z,6.2
2023-03-23T14:18:39.812Z,5.9
2023-03-23T14:21:33.563Z,6.3
2023-03-23T14:24:25.431Z,4.6
2023-03-23T14:27:15.496Z,4.8
2023-03-23T14:30:07.009Z,5.3
2023-03-23T14:33:00.702Z,4.2
2023-03-23T14:35:53.215Z,5.8
2023-03-23T14:38:44.895Z,5.7
2023-03-23T14:41:33.815Z,4.9
2023-03-23T14:44:22.531Z,3.4
2023-03-23T14:47:13.679Z,4.4
2023-03-23T14:50:06.906Z,3.9
2023-03-23T14:53:10.664Z,4.8
2023-03-23T14:56:03.002Z,3.8
2023-03-23T14:58:57.679Z,6.6
2023-03-23T15:01:51.558Z,4.8
2023-03-23T15:04:39.609Z,4.5
2023-03-23T15:07:30.849Z,4.6
2023-03-23T15:10:22.576Z,4.3
2023-03-23T15:13:10.928Z,6.8
2023-03-23T15:16:02.382Z,5.3
2023-03-23T15:18:58.206Z,4.1
2023-03-23T15:21:49.581Z,4.6
2023-03-23T15:24:39.421Z,4
2023-03-23T15:27:29.144Z,5.9
2023-03-23T15:30:18.974Z,5.7
2023-03-23T15:33:32.556Z,4.7
2023-03-23T15:36:21.799Z,5
2023-03-23T15:39:10.353Z,6.9
2023-03-23T15:41:59.354Z,5.5
2023-03-23T15:44:50.812Z,4.5
2023-03-23T15:47:45.045Z,4.4
2023-03-23T15:50:35.248Z,4.9
2023-03-23T15:53:25.513Z,5.1
2023-03-23T15:56:17.951Z,5.2
2023-03-23T15:59:06.008Z,6.2
2023-03-23T16:01:54.749Z,4.4
2023-03-23T16:04:45.761Z,5
2023-03-23T16:07:36.584Z,5.7
2023-03-23T16:10:24.602Z,5.2
2023-03-23T16:13:13.709Z,5.3
2023-03-23T16:16:01.299Z,4.8
2023-03-23T16:18:49.786Z,5
2023-03-23T16:21:37.478Z,6.3
2023-03-23T16:24:25.687Z,5.5
2023-03-23T16:27:13.457Z,5
2023-03-23T16:30:04.323Z,5.7
2023-03-23T16:33:00.823Z,8
2023-03-23T16:35:48.490Z,4.9
2023-03-23T16:38:49.618Z,6.4
2023-03-23T16:41:38.614Z,5.9
2023-03-23T16:44:26.200Z,8.8
2023-03-23T16:47:13.832Z,5.2
2023-03-23T16:50:03.799Z,5.2
2023-03-23T16:52:56.432Z,5.7
2023-03-23T16:55:44.832Z,5.5
2023-03-23T16:58:35.598Z,8.2
2023-03-23T17:01:23.340Z,7.2
2023-03-23T17:04:11.049Z,11
2023-03-23T17:07:00.324Z,8.3
2023-03-23T17:09:48.121Z,8.4
2023-03-23T17:12:35.797Z,7
2023-03-23T17:15:24.132Z,7.8
2023-03-23T17:18:11.811Z,8.3
2023-03-23T17:21:00.590Z,9.1
2023-03-23T17:23:48.455Z,9.2
2023-03-23T17:26:36.351Z,8.4
2023-03-23T17:29:24.090Z,10
2023-03-23T17:32:12.037Z,11.9
2023-03-23T17:35:00.600Z,10.2
2023-03-23T17:37:50.026Z,7.5
2023-03-23T17:40:37.579Z,8.4
2023-03-23T17:43:26.075Z,9.3
2023-03-23T17:46:13.949Z,8.1
2023-03-23T17:49:01.858Z,9.1
2023-03-23T17:51:49.522Z,8.6
2023-03-23T17:54:37.369Z,8.1
2023-03-23T17:57:24.960Z,10.2
2023-03-23T18:00:12.810Z,9.3
2023-03-23T18:03:01.471Z,9.8
2023-03-23T18:05:49.252Z,9.4
2023-03-23T18:08:43.027Z,9.3
2023-03-23T18:11:31.755Z,10.5
2023-03-23T18:14:19.570Z,8.8
2023-03-23T18:17:07.760Z,8.3
2023-03-23T18:19:55.771Z,8.5
2023-03-23T18:22:43.551Z,7.2
2023-03-23T18:25:32.533Z,7.7
2023-03-23T18:28:20.146Z,7.6
2023-03-23T18:31:09.786Z,7.7
2023-03-23T18:33:59.807Z,7.1
2023-03-23T18:36:47.540Z,7.6
2023-03-23T18:39:35.272Z,10
2023-03-23T18:42:23.154Z,6.7
2023-03-23T18:45:11.637Z,8.9
2023-03-23T18:47:59.320Z,11
2023-03-23T18:50:48.488Z,10.2
2023-03-23T18:53:38.091Z,11.1
2023-03-23T18:56:26.025Z,13.5
2023-03-23T18:59:13.689Z,12
2023-03-23T19:02:01.460Z,10.5
2023-03-23T19:04:50.079Z,14.9
2023-03-23T19:07:37.611Z,10.7
2023-03-23T19:10:25.276Z,10.8
2023-03-23T19:13:13.389Z,11.7
2023-03-23T19:16:01.957Z,8.7
2023-03-23T19:18:50.437Z,11.5
2023-03-23T19:21:39.686Z,10.3
2023-03-23T19:24:28.545Z,10.4
2023-03-23T19:27:16.752Z,9.6
2023-03-23T19:30:05.096Z,10.6
2023-03-23T19:32:54.394Z,10.8
2023-03-23T19:35:44.413Z,13
2023-03-23T19:38:36.716Z,13.8
2023-03-23T19:44:12.756Z,13.9
2023-03-23T19:47:00.457Z,11.9
2023-03-23T19:49:48.684Z,10.1
2023-03-23T19:52:36.849Z,11.3
2023-03-23T19:55:24.516Z,12.2
2023-03-23T19:58:12.295Z,10.5
2023-03-23T20:01:00.361Z,9.6
2023-03-23T20:03:48.674Z,13
2023-03-23T20:06:37.646Z,10.2
2023-03-23T20:09:26.168Z,12.2
2023-03-23T20:12:13.986Z,9.5
2023-03-23T20:15:01.565Z,10.8
2023-03-23T20:17:50.013Z,12.9
2023-03-23T20:20:37.723Z,10
2023-03-23T20:23:25.295Z,10.5
2023-03-23T20:26:13.045Z,9.7
2023-03-23T20:29:04.026Z,11.7
2023-03-23T20:31:52.568Z,11.9
2023-03-23T20:34:40.944Z,11.9
2023-03-23T20:37:33.945Z,12.1
2023-03-23T20:40:23.281Z,14.1
2023-03-23T20:43:11.665Z,10.4
2023-03-23T20:46:00.193Z,9.5
2023-03-23T20:48:49.435Z,11.8
2023-03-23T20:51:37.011Z,8.7
2023-03-23T20:54:25.109Z,10.9
2023-03-23T20:57:13.581Z,9.7
2023-03-23T21:00:01.870Z,9.4
2023-03-23T21:02:52.574Z,8.9
2023-03-23T21:05:40.724Z,9.4
2023-03-23T21:08:29.843Z,12.8
2023-03-23T21:11:18.693Z,8.1
2023-03-23T21:14:08.197Z,8.4
2023-03-23T21:16:57.260Z,7.6
2023-03-23T21:19:46.457Z,10.2
2023-03-23T21:22:34.661Z,9.8
2023-03-23T21:25:22.427Z,10.7
2023-03-23T21:28:23.122Z,7.2
2023-03-23T21:31:10.886Z,9.7
2023-03-23T21:33:59.796Z,6.7
2023-03-23T21:36:47.791Z,7.8
2023-03-23T21:39:36.137Z,11.1
2023-03-23T21:42:24.743Z,7.6
2023-03-23T21:45:15.159Z,10.4
2023-03-23T21:48:05.441Z,8.2
2023-03-23T21:50:53.747Z,8.6
2023-03-23T21:53:41.941Z,11
2023-03-23T21:56:31.692Z,9.1
2023-03-23T21:59:19.592Z,10.6
2023-03-23T22:02:07.846Z,8
2023-03-23T22:04:57.626Z,6.8
2023-03-23T22:07:45.439Z,8.5
2023-03-23T22:10:34.052Z,6.2
2023-03-23T22:13:27.964Z,7.9
2023-03-23T22:16:18.053Z,8.4
2023-03-23T22:19:07.359Z,8
2023-03-23T22:21:54.998Z,7.2
2023-03-23T22:24:43.246Z,9.4
2023-03-23T22:27:32.112Z,6.4
2023-03-23T22:30:20.203Z,6.4
2023-03-23T22:33:09.124Z,6.8
2023-03-23T22:35:56.915Z,6.3
2023-03-23T22:38:50.578Z,6.6
2023-03-23T22:41:39.749Z,6.2
2023-03-23T22:44:27.810Z,6.4
2023-03-23T22:47:15.508Z,6.1
2023-03-23T22:50:03.625Z,7.8
2023-03-23T22:52:53.548Z,9.3
2023-03-23T22:55:41.075Z,7.6
2023-03-23T22:58:31.678Z,6.8
2023-03-23T23:01:20.422Z,5.3
2023-03-23T23:04:08.642Z,7.8
2023-03-23T23:07:10.132Z,10.8
2023-03-23T23:10:00.002Z,7.3
2023-03-23T23:12:49.254Z,6.2
2023-03-23T23:15:38.741Z,7.8
2023-03-23T23:18:29.169Z,5.9
2023-03-23T23:21:18.313Z,7.2
2023-03-23T23:24:07.696Z,8.5
2023-03-23T23:26:55.314Z,6.9
2023-03-23T23:29:43.542Z,8.1
2023-03-23T23:32:32.452Z,9
2023-03-23T23:35:20.596Z,7
2023-03-23T23:38:09.300Z,7.8
2023-03-23T23:40:57.188Z,8.1
2023-03-23T23:43:45.359Z,8.3
2023-03-23T23:46:33.561Z,8.8
2023-03-23T23:49:21.202Z,9.9
2023-03-23T23:52:13.222Z,10
2023-03-23T23:55:01.287Z,10.4
2023-03-23T23:57:50.171Z,10.6
